Time;durP1;ratioP1;P1;durP2;ratioP2;P2;SDS_P1;SDS_P2;PMS_P1;PMS_P2;Temp;Humidity;BMP_temperature;BMP_pressure;BME280_temperature;BME280_humidity;BME280_pressure;Samples;Min_cycle;Max_cycle;Signal;HPM_P1;HPM_P2
2022/03/28 00:02:09;;;;;;;13.75;7.43;;;;;;;12.94;35.65;101953.38;5077284;28;20053;-75
2022/03/28 00:04:35;;;;;;;13.13;7.25;;;;;;;12.87;35.27;101947.72;5076485;28;20049;-75
2022/03/28 00:07:02;;;;;;;18.20;7.60;;;;;;;12.90;35.23;101954.63;5076589;28;20060;-75
2022/03/28 00:09:28;;;;;;;14.45;6.95;;;;;;;12.74;35.51;101949.84;5077810;28;20045;-74
2022/03/28 00:11:55;;;;;;;14.32;7.00;;;;;;;12.77;35.47;101946.88;5075707;28;20123;-74
2022/03/28 00:14:21;;;;;;;15.20;7.00;;;;;;;12.80;35.32;101945.72;5075604;28;20079;-74
2022/03/28 00:16:48;;;;;;;9.07;6.25;;;;;;;12.80;35.50;101943.91;5075495;28;20072;-74
2022/03/28 00:19:14;;;;;;;11.32;6.70;;;;;;;12.79;35.48;101947.56;5074869;28;20048;-74
2022/03/28 00:21:41;;;;;;;15.02;6.38;;;;;;;12.74;35.45;101944.47;5076323;28;20123;-74
2022/03/28 00:24:07;;;;;;;13.43;7.00;;;;;;;12.66;35.75;101938.94;5076375;28;20127;-74
2022/03/28 00:26:35;;;;;;;13.43;6.47;;;;;;;12.68;35.47;101938.78;5076238;28;20162;-75
2022/03/28 00:29:02;;;;;;;13.32;6.15;;;;;;;12.65;35.61;101935.38;5077350;28;20106;-74
2022/03/28 00:31:28;;;;;;;15.27;6.68;;;;;;;12.59;35.79;101940.47;5076363;28;20041;-75
2022/03/28 00:33:55;;;;;;;13.23;7.38;;;;;;;12.48;35.95;101932.56;5077146;28;20048;-75
2022/03/28 00:36:21;;;;;;;17.45;6.85;;;;;;;12.39;35.98;101932.44;5077140;28;20127;-75
2022/03/28 00:38:51;;;;;;;13.77;6.50;;;;;;;12.44;36.09;101926.63;5076341;28;20040;-76
2022/03/28 00:41:17;;;;;;;11.25;6.10;;;;;;;12.60;35.65;101926.91;5076111;28;20056;-75
2022/03/28 00:43:52;;;;;;;12.10;5.97;;;;;;;12.51;35.90;101918.81;5075103;28;20135;-76
2022/03/28 00:46:19;;;;;;;12.38;6.13;;;;;;;12.33;36.11;101916.84;5075522;28;20174;-75
2022/03/28 00:48:46;;;;;;;11.93;6.10;;;;;;;12.63;35.71;101905.06;5074955;28;20048;-75
2022/03/28 00:51:13;;;;;;;10.77;5.65;;;;;;;12.58;35.63;101906.50;5074083;28;20079;-75
2022/03/28 00:53:40;;;;;;;15.80;7.20;;;;;;;12.27;36.03;101909.34;5074846;28;20045;-76
2022/03/28 00:56:07;;;;;;;15.20;6.50;;;;;;;12.33;36.13;101903.41;5074038;28;20049;-75
2022/03/28 00:58:34;;;;;;;13.77;6.63;;;;;;;12.25;36.17;101900.59;5068187;28;20072;-75
2022/03/28 01:01:01;;;;;;;16.10;6.55;;;;;;;12.12;36.30;101900.88;5074160;28;20102;-76
2022/03/28 01:03:27;;;;;;;16.17;6.93;;;;;;;12.31;36.12;101900.00;5074119;28;20048;-74
2022/03/28 01:09:41;;;;;;;13.23;7.03;;;;;;;12.15;36.34;101884.44;5073866;28;20106;-74
2022/03/28 01:12:09;;;;;;;13.15;6.57;;;;;;;12.27;36.26;101886.97;5074618;28;20076;-74
2022/03/28 01:14:36;;;;;;;11.50;6.03;;;;;;;12.01;36.56;101876.81;5075235;28;20068;-75
2022/03/28 01:19:55;;;;;;;16.65;5.70;;;;;;;12.18;36.41;101877.94;5074890;28;20098;-75
2022/03/28 01:22:21;;;;;;;11.35;6.43;;;;;;;12.23;36.18;101875.66;5075510;28;20045;-74
2022/03/28 01:24:48;;;;;;;15.30;6.45;;;;;;;12.23;36.15;101872.97;5075010;28;20082;-74
2022/03/28 01:27:15;;;;;;;15.13;5.80;;;;;;;12.16;36.15;101871.84;5075045;28;20053;-75
2022/03/28 01:29:45;;;;;;;12.88;6.75;;;;;;;12.36;36.05;101870.81;5074553;28;20120;-74
2022/03/28 01:32:11;;;;;;;13.45;6.35;;;;;;;12.41;35.99;101870.38;5073759;28;20127;-74
2022/03/28 01:34:38;;;;;;;12.73;6.05;;;;;;;12.07;36.48;101872.69;5074837;28;20100;-74
2022/03/28 01:37:04;;;;;;;12.55;6.20;;;;;;;11.61;37.42;101866.13;5075138;28;20079;-75
2022/03/28 01:39:32;;;;;;;14.50;5.97;;;;;;;11.88;36.92;101869.00;5073953;28;20156;-75
2022/03/28 01:41:58;;;;;;;13.93;7.18;;;;;;;11.87;37.04;101866.47;5073658;28;20140;-74
2022/03/28 01:44:26;;;;;;;13.20;6.47;;;;;;;11.97;36.54;101858.38;5074983;28;20498;-75
2022/03/28 01:46:52;;;;;;;15.73;7.15;;;;;;;12.01;36.53;101857.97;5074589;28;20044;-75
2022/03/28 01:49:20;;;;;;;19.30;7.25;;;;;;;11.91;36.75;101855.28;5074339;28;20045;-75
2022/03/28 01:51:48;;;;;;;10.35;6.00;;;;;;;12.02;36.53;101854.28;5074402;28;20540;-75
2022/03/28 01:54:15;;;;;;;13.50;7.28;;;;;;;11.86;37.00;101851.31;5073443;28;20052;-75
2022/03/28 01:56:42;;;;;;;12.77;6.97;;;;;;;11.88;37.08;101854.72;5073922;28;20068;-75
2022/03/28 01:59:10;;;;;;;13.55;6.78;;;;;;;11.79;37.14;101855.56;5073442;28;20079;-75
2022/03/28 02:01:37;;;;;;;13.27;6.05;;;;;;;11.80;37.24;101855.44;5073874;28;20104;-75
2022/03/28 02:04:04;;;;;;;14.95;6.60;;;;;;;11.86;37.02;101846.81;5073239;28;20386;-75
2022/03/28 02:06:34;;;;;;;14.43;6.40;;;;;;;11.78;37.10;101845.78;5073493;28;20553;-75
2022/03/28 02:09:01;;;;;;;17.35;6.78;;;;;;;11.75;37.12;101840.69;5073843;28;20068;-75
2022/03/28 02:11:28;;;;;;;16.67;6.97;;;;;;;11.79;37.08;101834.88;5074869;28;20473;-75
2022/03/28 02:13:55;;;;;;;13.43;6.53;;;;;;;11.70;37.41;101833.06;5072202;28;20478;-75
2022/03/28 02:16:21;;;;;;;12.30;6.38;;;;;;;11.75;37.05;101828.09;5073779;28;20551;-75
2022/03/28 02:18:48;;;;;;;13.82;6.18;;;;;;;11.69;37.31;101829.53;5072803;28;20254;-75
2022/03/28 02:21:14;;;;;;;18.00;7.07;;;;;;;11.56;37.69;101825.38;5072584;28;20072;-75
2022/03/28 02:23:41;;;;;;;17.00;7.70;;;;;;;11.71;37.41;101818.63;5072315;28;20484;-75
2022/03/28 02:26:07;;;;;;;19.33;7.68;;;;;;;11.68;37.49;101819.75;5072886;28;20068;-75
2022/03/28 02:28:34;;;;;;;14.32;7.25;;;;;;;11.71;37.58;101815.09;5072467;28;20183;-75
2022/03/28 02:31:00;;;;;;;18.17;7.07;;;;;;;11.61;37.72;101815.91;5072501;28;20071;-75
2022/03/28 02:33:27;;;;;;;16.73;7.25;;;;;;;11.60;37.80;101808.81;5074154;28;20127;-75
2022/03/28 02:35:53;;;;;;;15.73;6.80;;;;;;;11.66;37.81;101808.31;5074355;28;20484;-75
2022/03/28 02:38:20;;;;;;;16.90;6.78;;;;;;;11.59;37.91;101809.81;5056304;28;20075;-75
2022/03/28 02:40:46;;;;;;;14.85;7.32;;;;;;;11.46;38.29;101807.41;5073357;28;20127;-75
2022/03/28 02:43:13;;;;;;;17.08;7.68;;;;;;;11.47;38.26;101808.25;5077825;28;20132;-75
2022/03/28 02:45:40;;;;;;;14.18;7.40;;;;;;;11.52;38.29;101806.00;5076978;28;20076;-75
2022/03/28 02:48:07;;;;;;;16.00;7.75;;;;;;;11.48;38.59;101806.41;5075805;28;20052;-75
2022/03/28 02:50:34;;;;;;;13.15;7.43;;;;;;;11.39;38.78;101806.25;5076727;28;20045;-75
2022/03/28 02:53:01;;;;;;;20.25;7.55;;;;;;;11.33;39.02;101796.06;5077178;28;20469;-75
2022/03/28 02:55:27;;;;;;;14.15;7.50;;;;;;;11.35;39.13;101798.63;5077993;28;20543;-75
2022/03/28 02:57:53;;;;;;;15.93;7.20;;;;;;;11.29;39.14;101805.41;5077261;28;20119;-75
2022/03/28 03:00:21;;;;;;;23.85;7.82;;;;;;;11.12;39.57;101800.69;5077578;28;20056;-75
2022/03/28 03:02:47;;;;;;;21.27;7.68;;;;;;;11.21;39.09;101798.03;5075853;28;20086;-75
2022/03/28 03:05:14;;;;;;;19.33;7.68;;;;;;;11.23;39.27;101787.13;5077040;28;20078;-75
2022/03/28 03:07:40;;;;;;;17.45;7.93;;;;;;;11.31;39.06;101795.38;5075101;28;20064;-75
2022/03/28 03:10:08;;;;;;;17.65;7.97;;;;;;;11.10;39.35;101794.59;5076549;28;20424;-75
2022/03/28 03:12:35;;;;;;;18.67;9.18;;;;;;;11.16;39.38;101794.06;5076369;28;20119;-75
2022/03/28 03:15:02;;;;;;;16.33;8.40;;;;;;;10.95;39.90;101781.56;5075997;28;20052;-75
2022/03/28 03:17:28;;;;;;;27.60;7.63;;;;;;;10.92;40.06;101787.19;5073989;28;20045;-75
2022/03/28 03:19:55;;;;;;;19.05;7.97;;;;;;;11.12;39.66;101771.16;5073493;28;20060;-75
2022/03/28 03:22:21;;;;;;;21.65;7.57;;;;;;;10.80;40.49;101780.25;5075081;28;20045;-75
2022/03/28 03:24:48;;;;;;;17.95;7.22;;;;;;;11.19;39.56;101766.91;5074581;28;20048;-75
2022/03/28 03:27:14;;;;;;;23.65;8.43;;;;;;;11.09;40.07;101766.06;5075266;28;20432;-75
2022/03/28 03:29:41;;;;;;;23.92;8.30;;;;;;;11.12;40.03;101768.47;5075801;28;20524;-75
2022/03/28 03:32:08;;;;;;;21.50;8.63;;;;;;;10.75;40.96;101769.06;5074729;28;20075;-75
2022/03/28 03:34:35;;;;;;;17.55;7.88;;;;;;;10.56;41.42;101774.34;5074789;28;20476;-75
2022/03/28 03:37:02;;;;;;;20.67;8.45;;;;;;;10.83;40.91;101758.50;5075196;28;20053;-75
2022/03/28 03:39:28;;;;;;;21.27;8.25;;;;;;;10.89;40.72;101760.63;5076050;28;20075;-75
2022/03/28 03:41:55;;;;;;;21.08;8.13;;;;;;;10.95;40.70;101759.22;5075071;28;20462;-75
2022/03/28 03:44:22;;;;;;;15.27;8.27;;;;;;;10.79;41.17;101767.81;5074097;28;20048;-75
2022/03/28 03:46:48;;;;;;;16.08;7.90;;;;;;;10.57;41.73;101759.94;5073907;28;20044;-75
2022/03/28 03:49:18;;;;;;;22.73;8.70;;;;;;;10.49;42.16;101757.91;5074314;28;20076;-75
2022/03/28 03:51:44;;;;;;;19.48;8.50;;;;;;;10.65;41.65;101754.75;5073597;28;20124;-75
2022/03/28 03:54:11;;;;;;;19.35;10.07;;;;;;;10.62;41.39;101747.84;5062657;28;20064;-75
2022/03/28 03:56:38;;;;;;;18.38;8.15;;;;;;;10.39;42.09;101743.59;5074733;28;20064;-75
2022/03/28 03:59:05;;;;;;;18.58;8.68;;;;;;;10.63;41.59;101744.16;5074392;28;20044;-75
2022/03/28 04:01:31;;;;;;;19.92;9.20;;;;;;;10.74;41.34;101746.72;5075308;28;20068;-75
2022/03/28 04:03:58;;;;;;;17.02;8.50;;;;;;;10.75;41.42;101742.22;5074962;28;20128;-75
2022/03/28 04:06:24;;;;;;;21.02;9.15;;;;;;;10.77;41.10;101740.25;5074983;28;20450;-75
2022/03/28 04:08:51;;;;;;;16.48;7.53;;;;;;;10.73;41.51;101738.84;5073667;28;20090;-75
2022/03/28 04:11:17;;;;;;;21.98;8.90;;;;;;;10.75;41.43;101739.53;5073967;28;20094;-75
2022/03/28 04:13:44;;;;;;;24.80;9.45;;;;;;;10.81;41.25;101739.00;5074644;28;20567;-75
2022/03/28 04:16:11;;;;;;;22.90;9.23;;;;;;;10.53;41.97;101737.06;5074489;28;20131;-75
2022/03/28 04:18:37;;;;;;;23.60;9.50;;;;;;;10.66;41.51;101732.31;5073801;28;20044;-75
2022/03/28 04:21:04;;;;;;;18.30;8.73;;;;;;;10.79;41.26;101734.72;5075900;28;20483;-75
2022/03/28 04:23:30;;;;;;;27.23;9.30;;;;;;;10.56;41.80;101726.06;5075299;28;20127;-75
2022/03/28 04:25:57;;;;;;;21.95;8.85;;;;;;;10.40;42.24;101723.84;5073813;28;20112;-75
2022/03/28 04:28:23;;;;;;;25.80;9.32;;;;;;;10.29;42.42;101724.78;5074188;28;20126;-75
2022/03/28 04:30:53;;;;;;;23.83;9.57;;;;;;;10.39;42.28;101725.66;5074967;28;20046;-75
2022/03/28 04:33:19;;;;;;;22.90;8.98;;;;;;;10.64;41.77;101723.53;5074864;28;20392;-75
2022/03/28 04:35:46;;;;;;;17.80;7.88;;;;;;;10.62;41.78;101731.75;5074088;28;20377;-75
2022/03/28 04:38:12;;;;;;;21.58;9.27;;;;;;;10.61;41.95;101723.81;5073651;28;20466;-76
2022/03/28 04:40:39;;;;;;;32.25;9.70;;;;;;;10.60;41.86;101728.31;5073890;28;20128;-75
2022/03/28 04:43:06;;;;;;;27.80;10.48;;;;;;;10.66;41.59;101735.00;5072984;28;20048;-75
2022/03/28 04:45:32;;;;;;;21.52;9.85;;;;;;;10.69;41.74;101742.78;5074809;28;20127;-75
2022/03/28 04:48:00;;;;;;;26.92;9.88;;;;;;;10.47;42.20;101733.88;5074069;28;20556;-75
2022/03/28 04:50:27;;;;;;;23.55;8.77;;;;;;;10.69;41.72;101730.22;5071599;28;20049;-75
2022/03/28 04:52:54;;;;;;;23.02;9.27;;;;;;;10.59;41.93;101728.47;5073556;28;20124;-75
2022/03/28 04:55:21;;;;;;;26.40;11.05;;;;;;;10.57;42.06;101722.38;5074123;28;20054;-75
2022/03/28 04:57:47;;;;;;;39.45;10.63;;;;;;;10.64;41.86;101723.53;5075081;28;20064;-75
2022/03/28 05:00:15;;;;;;;23.63;9.70;;;;;;;10.54;42.22;101722.66;5073845;28;20049;-75
2022/03/28 05:02:41;;;;;;;25.48;9.82;;;;;;;10.49;41.99;101726.56;5073434;28;20123;-75
2022/03/28 05:05:08;;;;;;;21.48;9.35;;;;;;;10.60;42.12;101725.66;5072731;28;20055;-75
2022/03/28 05:07:37;;;;;;;23.60;10.98;;;;;;;10.70;41.92;101733.72;5073793;28;20128;-75
2022/03/28 05:10:05;;;;;;;21.20;9.45;;;;;;;10.60;42.17;101732.84;5073056;28;20102;-75
2022/03/28 05:12:32;;;;;;;24.83;10.52;;;;;;;10.61;42.27;101737.22;5072829;28;20044;-75
2022/03/28 05:14:59;;;;;;;21.05;10.02;;;;;;;10.52;42.48;101735.38;5071530;28;20056;-75
2022/03/28 05:17:30;;;;;;;27.20;10.18;;;;;;;10.73;42.19;101734.31;5073292;28;20109;-74
2022/03/28 05:19:58;;;;;;;21.00;9.05;;;;;;;10.47;42.71;101731.19;5075790;28;20083;-75
2022/03/28 05:22:26;;;;;;;26.13;11.15;;;;;;;10.59;42.51;101732.00;5072307;28;20515;-75
2022/03/28 05:24:54;;;;;;;25.42;10.93;;;;;;;10.52;42.54;101728.16;5071961;28;20195;-75
2022/03/28 05:27:21;;;;;;;23.05;10.68;;;;;;;10.66;42.31;101729.63;5062624;28;20172;-75
2022/03/28 05:29:48;;;;;;;36.83;11.13;;;;;;;10.49;42.92;101726.56;5072015;28;20071;-74
2022/03/28 05:32:14;;;;;;;23.00;10.77;;;;;;;10.52;42.70;101724.63;5072495;28;20052;-74
2022/03/28 05:34:41;;;;;;;24.40;10.18;;;;;;;10.64;42.75;101716.34;5072232;28;20476;-74
2022/03/28 05:37:14;;;;;;;24.42;9.75;;;;;;;10.70;42.57;101717.63;5071616;28;20136;-75
2022/03/28 05:39:42;;;;;;;25.83;9.73;;;;;;;10.73;42.41;101720.03;5072400;28;20071;-75
2022/03/28 05:42:09;;;;;;;24.92;9.68;;;;;;;10.34;43.27;101714.50;5065012;28;20128;-75
2022/03/28 05:44:37;;;;;;;26.35;10.93;;;;;;;10.81;42.43;101714.81;5073475;28;20064;-74
2022/03/28 05:47:04;;;;;;;29.60;11.57;;;;;;;10.81;42.45;101697.88;5064550;28;20056;-71
2022/03/28 05:49:31;;;;;;;29.40;11.60;;;;;;;10.87;42.42;101703.56;5069475;28;20045;-71
2022/03/28 05:51:57;;;;;;;26.50;11.73;;;;;;;10.51;43.03;101704.97;5046829;28;20152;-73
2022/03/28 05:54:24;;;;;;;33.33;11.10;;;;;;;10.91;42.44;101696.91;5057488;28;20044;-71
2022/03/28 05:56:51;;;;;;;24.30;11.25;;;;;;;11.00;42.29;101697.94;5067632;28;20045;-72
2022/03/28 05:59:18;;;;;;;31.25;11.68;;;;;;;10.96;42.31;101697.34;5051530;28;20135;-72
2022/03/28 06:01:44;;;;;;;30.63;11.63;;;;;;;10.99;42.33;101697.06;5053347;28;20040;-72
2022/03/28 06:04:11;;;;;;;31.73;12.23;;;;;;;10.96;42.61;101693.78;5073886;28;20381;-72
2022/03/28 06:06:37;;;;;;;23.83;10.48;;;;;;;11.07;42.62;101695.53;5071969;28;20044;-72
2022/03/28 06:09:04;;;;;;;23.08;10.90;;;;;;;11.03;42.50;101697.63;5064360;28;20049;-74
2022/03/28 06:11:30;;;;;;;28.02;10.73;;;;;;;10.74;43.28;101697.56;5062230;28;20384;-74
2022/03/28 06:13:57;;;;;;;24.00;10.95;;;;;;;10.93;42.75;101681.53;5054957;28;20476;-74
2022/03/28 06:16:25;;;;;;;28.00;11.45;;;;;;;11.12;42.54;101685.22;5062871;28;20053;-73
2022/03/28 06:18:52;;;;;;;32.20;10.80;;;;;;;11.20;42.43;101685.34;5071298;28;20040;-73
2022/03/28 06:21:18;;;;;;;34.70;10.50;;;;;;;11.20;42.27;101677.28;5071604;28;20143;-74
2022/03/28 06:23:49;;;;;;;22.38;10.90;;;;;;;11.56;41.88;101682.94;5053459;28;20045;-73
2022/03/28 06:26:17;;;;;;;29.67;10.82;;;;;;;11.37;42.27;101671.19;5052108;28;20072;-74
2022/03/28 06:28:49;;;;;;;22.50;11.00;;;;;;;12.11;40.74;101673.22;5051370;28;20049;-73
2022/03/28 06:31:15;;;;;;;22.33;11.00;;;;;;;12.38;40.13;101672.41;5056711;28;20132;-73
2022/03/28 06:33:42;;;;;;;24.13;11.18;;;;;;;12.71;39.38;101670.09;5062957;28;20146;-73
2022/03/28 06:36:09;;;;;;;25.50;9.98;;;;;;;13.21;38.20;101666.91;5056802;28;20049;-74
2022/03/28 06:38:36;;;;;;;33.47;11.32;;;;;;;13.56;37.84;101666.06;5050407;28;20511;-74
2022/03/28 06:41:03;;;;;;;27.77;11.07;;;;;;;13.92;36.84;101667.84;5067085;28;20484;-74
2022/03/28 06:43:30;;;;;;;23.85;10.23;;;;;;;14.16;36.31;101657.19;5061709;28;20494;-74
2022/03/28 06:45:57;;;;;;;25.52;11.30;;;;;;;14.14;36.15;101651.09;5057594;28;20442;-74
2022/03/28 06:48:24;;;;;;;30.83;10.88;;;;;;;13.88;36.53;101653.00;5050645;28;20091;-74
2022/03/28 06:51:00;;;;;;;25.67;10.23;;;;;;;14.48;35.46;101645.66;5069121;28;20110;-73
2022/03/28 06:53:26;;;;;;;25.52;10.75;;;;;;;14.73;34.86;101641.22;5070136;28;20044;-73
2022/03/28 06:55:53;;;;;;;24.05;11.07;;;;;;;15.56;33.51;101639.41;5060822;28;20076;-74
2022/03/28 06:58:20;;;;;;;28.63;11.43;;;;;;;15.65;33.21;101638.44;5066594;28;20151;-73
2022/03/28 07:00:46;;;;;;;26.10;10.05;;;;;;;15.61;33.33;101629.78;5051627;28;20115;-73
2022/03/28 07:03:13;;;;;;;17.13;9.68;;;;;;;16.08;32.33;101630.88;5056036;28;20042;-73
2022/03/28 07:05:42;;;;;;;25.70;9.73;;;;;;;16.36;31.97;101621.28;5062294;28;20181;-72
2022/03/28 07:08:09;;;;;;;30.60;10.05;;;;;;;16.79;31.24;101624.47;5056338;28;20049;-73
2022/03/28 07:10:35;;;;;;;22.10;9.52;;;;;;;16.92;31.21;101617.59;5050945;28;20071;-73
2022/03/28 07:13:02;;;;;;;21.05;10.13;;;;;;;17.47;30.44;101621.91;5070057;28;20460;-72
2022/03/28 07:15:29;;;;;;;22.85;8.70;;;;;;;17.76;29.47;101616.53;5070396;28;20044;-71
2022/03/28 07:18:02;;;;;;;20.63;9.93;;;;;;;17.79;29.19;101608.03;5070187;28;20075;-71
2022/03/28 07:20:31;;;;;;;21.35;9.70;;;;;;;18.38;28.18;101612.63;5060461;28;20110;-72
2022/03/28 07:22:59;;;;;;;18.48;9.18;;;;;;;18.21;28.43;101603.81;5050670;28;20485;-73
2022/03/28 07:25:26;;;;;;;22.58;8.63;;;;;;;18.62;28.11;101610.56;5051061;28;20080;-73
2022/03/28 07:27:52;;;;;;;21.58;7.75;;;;;;;19.10;26.97;101597.28;5052798;28;20215;-73
2022/03/28 07:30:20;;;;;;;18.85;8.50;;;;;;;19.27;26.95;101593.25;5054258;28;20072;-73
2022/03/28 07:32:47;;;;;;;22.35;7.95;;;;;;;18.69;27.68;101592.47;5054269;28;20132;-73
2022/03/28 07:35:15;;;;;;;22.42;8.95;;;;;;;18.65;27.57;101596.59;5058806;28;20137;-73
2022/03/28 07:37:43;;;;;;;20.77;8.48;;;;;;;18.44;27.64;101597.41;5055799;28;20547;-74
2022/03/28 07:40:12;;;;;;;18.70;8.70;;;;;;;19.70;26.30;101590.47;5065775;28;20051;-73
2022/03/28 07:42:40;;;;;;;21.15;8.43;;;;;;;19.90;25.95;101590.56;5064170;28;20049;-73
2022/03/28 07:45:08;;;;;;;21.67;7.43;;;;;;;20.11;25.46;101592.38;5054707;28;20055;-73
2022/03/28 07:47:35;;;;;;;21.35;7.97;;;;;;;20.06;25.03;101589.41;5070289;28;20404;-73
2022/03/28 07:50:03;;;;;;;17.30;8.13;;;;;;;20.25;24.93;101588.66;5063778;28;20076;-73
2022/03/28 07:52:30;;;;;;;16.58;8.40;;;;;;;20.84;24.12;101595.34;5059088;28;20049;-73
2022/03/28 07:54:57;;;;;;;20.60;8.77;;;;;;;19.89;25.44;101583.44;5060349;28;20441;-73
2022/03/28 07:57:23;;;;;;;20.88;9.45;;;;;;;20.70;24.20;101588.16;5068586;28;20040;-73
2022/03/28 07:59:50;;;;;;;18.33;8.18;;;;;;;20.90;24.09;101581.72;5063433;28;20124;-74
2022/03/28 08:02:37;;;;;;;18.92;7.78;;;;;;;20.48;24.37;101585.59;5064538;28;20048;-73
2022/03/28 08:05:05;;;;;;;18.27;7.55;;;;;;;20.52;24.58;101575.97;5054195;28;20045;-74
2022/03/28 08:07:32;;;;;;;21.27;8.70;;;;;;;21.28;23.47;101578.38;5062857;28;20102;-73
2022/03/28 08:09:58;;;;;;;17.75;7.65;;;;;;;20.19;24.27;101567.66;5058204;28;20055;-74
2022/03/28 08:12:25;;;;;;;15.07;7.32;;;;;;;19.66;25.18;101573.66;5073331;28;20484;-74
2022/03/28 08:14:52;;;;;;;22.55;7.10;;;;;;;20.82;23.92;101575.63;5063970;28;20128;-73
2022/03/28 08:17:19;;;;;;;20.05;7.78;;;;;;;21.99;22.29;101571.38;5053683;28;20045;-72
2022/03/28 08:19:46;;;;;;;18.75;7.40;;;;;;;21.83;22.44;101567.19;5055263;28;20135;-73
2022/03/28 08:22:14;;;;;;;22.60;7.85;;;;;;;21.81;22.65;101561.97;5064397;28;20093;-74
2022/03/28 08:24:41;;;;;;;22.02;7.35;;;;;;;21.24;22.97;101560.75;5066109;28;20493;-73
2022/03/28 08:27:07;;;;;;;13.15;6.40;;;;;;;20.60;23.65;101553.16;5069094;28;20127;-72
2022/03/28 08:29:34;;;;;;;16.80;6.47;;;;;;;22.66;21.60;101555.47;5056714;28;20140;-73
2022/03/28 08:32:02;;;;;;;19.35;6.90;;;;;;;22.21;22.08;101556.34;5063439;28;20095;-71
2022/03/28 08:34:35;;;;;;;17.05;8.10;;;;;;;22.64;21.85;101555.72;5063311;28;20048;-72
2022/03/28 08:37:02;;;;;;;15.85;6.97;;;;;;;21.00;23.27;101545.00;5052327;28;20045;-72
2022/03/28 08:39:28;;;;;;;16.88;6.97;;;;;;;21.34;23.13;101547.53;5065750;28;20090;-72
2022/03/28 08:41:55;;;;;;;13.40;6.88;;;;;;;21.96;23.07;101547.22;5044646;28;20055;-72
2022/03/28 08:44:23;;;;;;;11.55;6.50;;;;;;;22.37;22.12;101538.59;5072133;28;20044;-73
2022/03/28 08:46:54;;;;;;;17.75;7.70;;;;;;;22.73;21.78;101542.59;5067631;28;20041;-74
2022/03/28 08:49:20;;;;;;;10.38;6.30;;;;;;;22.90;21.94;101543.72;5037696;28;20040;-74
2022/03/28 08:51:47;;;;;;;12.60;7.22;;;;;;;23.55;21.06;101543.38;5064533;28;20370;-74
2022/03/28 08:54:14;;;;;;;14.07;6.97;;;;;;;24.10;20.19;101539.81;5067530;28;20051;-74
2022/03/28 08:56:40;;;;;;;16.17;6.63;;;;;;;22.67;21.97;101538.88;5052584;28;20131;-74
2022/03/28 08:59:09;;;;;;;18.40;6.70;;;;;;;23.06;21.04;101531.41;5056045;28;20483;-72
2022/03/28 09:01:37;;;;;;;17.75;6.35;;;;;;;24.11;20.25;101523.13;5072338;28;20072;-74
2022/03/28 09:04:10;;;;;;;16.42;6.90;;;;;;;23.80;20.65;101523.31;5059711;28;20041;-73
2022/03/28 09:06:38;;;;;;;12.88;6.45;;;;;;;23.57;21.12;101510.28;5068647;28;20102;-73
2022/03/28 09:09:11;;;;;;;17.90;7.32;;;;;;;22.11;22.60;101501.31;5051138;28;20041;-72
2022/03/28 09:11:38;;;;;;;14.18;7.32;;;;;;;22.25;22.11;101502.91;5058303;28;20542;-72
2022/03/28 09:14:04;;;;;;;13.50;6.60;;;;;;;23.06;21.25;101503.19;5072077;28;20068;-72
2022/03/28 09:16:34;;;;;;;10.70;6.15;;;;;;;23.71;20.71;101500.84;5068482;28;20048;-73
2022/03/28 09:19:10;;;;;;;10.25;6.28;;;;;;;22.98;20.87;101493.34;5057546;28;20471;-72
2022/03/28 09:21:37;;;;;;;13.43;6.47;;;;;;;21.53;22.74;101499.41;5062254;28;20050;-72
2022/03/28 09:24:08;;;;;;;13.85;6.00;;;;;;;21.82;22.34;101500.81;5058351;28;20405;-72
2022/03/28 09:26:35;;;;;;;11.15;5.93;;;;;;;22.69;21.66;101494.88;5052183;28;20099;-72
2022/03/28 09:29:05;;;;;;;13.70;6.43;;;;;;;22.86;21.16;101486.97;5051744;28;20044;-73
2022/03/28 09:31:35;;;;;;;12.80;6.60;;;;;;;22.37;21.80;101483.09;5056954;28;20040;-73
2022/03/28 09:34:10;;;;;;;12.80;6.38;;;;;;;23.18;20.56;101483.09;5064423;28;20283;-73
2022/03/28 09:36:44;;;;;;;18.17;6.30;;;;;;;22.28;21.43;101480.59;5010857;28;1189923;-73
2022/03/28 09:39:22;;;;;;;10.57;5.47;;;;;;;23.40;20.61;101468.97;5056604;28;20072;-72
2022/03/28 09:42:00;;;;;;;19.52;6.03;;;;;;;24.65;19.41;101468.38;5071940;28;20075;-73
2022/03/28 09:44:37;;;;;;;16.05;6.15;;;;;;;24.68;19.21;101462.38;5065315;28;20496;-73
2022/03/28 09:47:12;;;;;;;15.02;5.90;;;;;;;23.17;20.41;101462.25;5070325;28;20049;-73
2022/03/28 09:49:41;;;;;;;12.70;5.75;;;;;;;22.13;21.62;101460.94;5051130;28;20060;-73
2022/03/28 09:52:17;;;;;;;10.27;5.18;;;;;;;23.54;20.35;101459.56;5056212;28;20091;-72
2022/03/28 09:54:49;;;;;;;10.60;5.10;;;;;;;23.88;19.64;101458.06;5052060;28;20044;-73
2022/03/28 09:57:22;;;;;;;17.42;5.35;;;;;;;23.23;20.18;101457.78;5040113;28;20044;-73
2022/03/28 09:59:50;;;;;;;12.95;5.05;;;;;;;23.66;20.01;101454.97;5033424;28;20460;-72
2022/03/28 10:02:19;;;;;;;9.95;5.32;;;;;;;23.10;20.40;101445.03;5052894;28;20075;-72
2022/03/28 10:04:49;;;;;;;10.52;4.90;;;;;;;24.10;19.14;101446.63;5056751;28;20147;-71
2022/03/28 10:07:18;;;;;;;16.58;4.90;;;;;;;25.62;17.80;101440.44;5063733;28;20045;-73
2022/03/28 10:09:44;;;;;;;15.27;5.00;;;;;;;25.53;17.37;101445.44;5051879;28;20526;-71
2022/03/28 10:12:11;;;;;;;11.27;4.65;;;;;;;25.03;18.03;101442.41;5062376;28;20115;-72
2022/03/28 10:14:38;;;;;;;14.35;4.65;;;;;;;25.77;17.63;101442.63;5060157;28;20072;-73
2022/03/28 10:17:06;;;;;;;17.52;4.93;;;;;;;24.63;18.44;101443.91;5065605;28;20517;-72
2022/03/28 10:19:36;;;;;;;13.48;4.85;;;;;;;23.10;20.21;101434.09;5050733;28;20508;-73
2022/03/28 10:22:16;;;;;;;9.43;4.38;;;;;;;23.62;19.07;101434.56;5062632;28;20127;-73
2022/03/28 10:24:45;;;;;;;16.05;4.95;;;;;;;23.41;19.69;101437.78;5070793;28;20041;-74
2022/03/28 10:27:12;;;;;;;15.10;5.13;;;;;;;24.29;18.88;101439.16;5070810;28;20119;-72
2022/03/28 10:29:41;;;;;;;11.75;4.53;;;;;;;24.57;18.78;101425.63;5067349;28;20124;-72
2022/03/28 10:32:16;;;;;;;12.18;4.43;;;;;;;24.33;18.87;101432.97;5051437;28;20072;-73
2022/03/28 10:34:56;;;;;;;8.75;4.82;;;;;;;24.88;18.17;101429.13;5050452;28;20068;-74
2022/03/28 10:37:38;;;;;;;11.10;4.22;;;;;;;25.02;18.00;101425.09;5050690;28;20048;-74
2022/03/28 10:40:28;;;;;;;11.88;5.50;;;;;;;24.98;18.33;101421.13;5051861;28;20044;-74
2022/03/28 10:43:14;;;;;;;7.45;4.28;;;;;;;24.49;18.50;101415.03;5051132;28;20106;-72
2022/03/28 10:45:55;;;;;;;11.00;4.90;;;;;;;22.72;20.39;101413.22;5050888;28;20041;-72
2022/03/28 10:48:40;;;;;;;8.55;4.28;;;;;;;21.62;21.79;101407.16;5067600;28;20056;-73
2022/03/28 10:51:13;;;;;;;12.23;3.92;;;;;;;22.01;21.58;101408.91;5053568;28;20139;-74
2022/03/28 10:53:51;;;;;;;24.63;4.40;;;;;;;20.89;23.55;101405.47;5070776;28;20075;-73
2022/03/28 10:56:34;;;;;;;14.80;3.55;;;;;;;20.94;23.23;101401.25;5052675;28;20529;-74
2022/03/28 10:59:17;;;;;;;7.85;2.38;;;;;;;21.92;21.97;101390.25;5071737;28;20050;-73
2022/03/28 11:01:49;;;;;;;19.90;3.28;;;;;;;20.98;23.12;101389.75;5071980;28;20122;-73
2022/03/28 11:04:24;;;;;;;6.28;2.97;;;;;;;21.65;22.18;101393.09;5074037;28;20123;-73
2022/03/28 11:07:05;;;;;;;9.95;2.67;;;;;;;22.27;21.74;101387.91;5071211;28;20066;-74
2022/03/28 11:09:50;;;;;;;4.43;2.40;;;;;;;21.82;22.02;101377.91;5057066;28;20393;-73
2022/03/28 11:12:40;;;;;;;5.95;2.00;;;;;;;21.83;21.74;101382.28;5077012;28;20044;-73
2022/03/28 11:15:15;;;;;;;4.03;1.90;;;;;;;21.78;21.87;101373.06;5062753;28;20053;-73
2022/03/28 11:18:02;;;;;;;4.18;1.70;;;;;;;22.57;20.91;101366.25;5055083;28;20040;-74
2022/03/28 11:20:45;;;;;;;5.47;1.85;;;;;;;22.61;20.56;101364.72;5053821;28;20041;-71
2022/03/28 11:23:15;;;;;;;3.92;2.40;;;;;;;22.92;20.41;101357.47;5054726;28;20132;-72
2022/03/28 11:25:46;;;;;;;6.43;2.28;;;;;;;21.94;21.58;101358.06;5059203;28;20098;-72
2022/03/28 11:28:24;;;;;;;10.25;2.20;;;;;;;23.31;20.29;101350.72;5061812;28;20041;-72
2022/03/28 11:31:15;;;;;;;9.15;2.33;;;;;;;23.31;20.09;101342.50;5040322;28;20136;-72